Townville, SC (29689)

2:29 AM EDT on May 28, 2017 (GMT -0400)
Musser Fruit Farm | | Change Station
Active Advisory: Severe Thunderstorm Watch

Elev 727 ft 34.60 °N, 82.88 °W | Updated 3 minutes ago

Rain
Rain
68.8 °F
Feels Like 68.8 °F
N
0.0
Wind Variable Wind from WSW
Gusts 3.0 mph

Today
High -- | Low -- °F
--% Chance of Precip.
Yesterday
High -- | Low -- °F
Precip. -- in
Pressure 29.94 in
Visibility 10.0 miles
Clouds Scattered Clouds 12000 ft
Dew Point 64 °F
Humidity 85%
Rainfall 0.02 in
Snow Depth Not available.
6:21 AM 8:36 PM
Waxing Crescent, 9% visible
METAR KCEU 280554Z AUTO 24003KT 10SM -RA SCT120 22/15 A2997 RMK AO2 PK WND 32026/0510 WSHFT 0451 LTG DSNT SE AND S RAB17 SLP138 P0000 60000 T02170150 10278 20217 50005
Pressure 29.94 in
Visibility 10.0 miles
Clouds Scattered Clouds 12000 ft
Dew Point 64 °F
Humidity 85%
Rainfall 0.02 in
Snow Depth Not available.
6:21 AM 8:36 PM
Waxing Crescent, 9% visible
METAR KCEU 280554Z AUTO 24003KT 10SM -RA SCT120 22/15 A2997 RMK AO2 PK WND 32026/0510 WSHFT 0451 LTG DSNT SE AND S RAB17 SLP138 P0000 60000 T02170150 10278 20217 50005

Get Your Daily Forecast Email!

Thanks for signing up!

Be on the lookout for a verification email in your inbox.

You'll start receiving severe weather alerts in your inbox..

×

10-Day Weather Forecast

Almanac

Astronomy

May. 28, 2017 Rise Set
Actual Time
Civil Twilight
Nautical Twilight
Astronomical Twilight
Moon
Length of Visible Light
Length of Day
Tomorrow will be .
, % of the Moon is Illuminated

Today's Extremes

State Highs State Lows

Community

WunderPhotos

Category 6

Welcome to Category 6. This is the collective home for Weather Underground's featured writeups by Dr. Jeff Masters (right), Bob Henson (left), Chris Burt, and other regular contributors.

Nearby

Air Quality

  Air Quality AQ Index Pollutant
Not available.

Snow Depth

Station Depth Elevation

Earthquake Activity

City Distance Mag. Time & Date
Minimum magnitude displayed is 2.5.

Coastal Water Temperatures

Place Temperature

Stations

Nearby Weather Stations

Station Location Temp. Windchill Dew Point Humidity Wind Precip. Elev Updated Type
                   

Watches & Warnings

Severe Thunderstorm Watch
Issued: 2:24 AM EDT May. 28, 2017 – National Weather Service

Severe Thunderstorm Watch 288 remains in effect until 600 am EDT

SC
. South Carolina counties included are

Abbeville Anderson Cherokee
Chester Fairfield Greenville
Greenwood Lancaster Laurens
Newberry Spartanburg Union
York